Time;durP1;ratioP1;P1;durP2;ratioP2;P2;SDS_P1;SDS_P2;PMS_P1;PMS_P2;Temp;Humidity;BMP_temperature;BMP_pressure;BME280_temperature;BME280_humidity;BME280_pressure;Samples;Min_cycle;Max_cycle;Signal;HPM_P1;HPM_P2
2022/09/18 00:01:44;;;;;;;22.90;11.40;;;;;;;20.58;82.39;97925.88;25061;1316;3053530;-61
2022/09/18 00:04:13;;;;;;;19.00;10.40;;;;;;;20.44;83.01;97920.45;25094;1315;3027038;-58
2022/09/18 00:06:44;;;;;;;22.30;11.20;;;;;;;20.45;82.98;97923.04;25125;1315;3052437;-62
2022/09/18 00:09:13;;;;;;;17.60;10.40;;;;;;;20.24;83.69;97929.73;25102;1314;3026731;-61
2022/09/18 00:11:45;;;;;;;13.10;6.40;;;;;;;19.92;85.90;97921.95;25057;1315;3026201;-62
2022/09/18 00:14:16;;;;;;;16.00;8.80;;;;;;;20.26;85.10;97919.98;25018;1314;3028705;-60
2022/09/18 00:16:45;;;;;;;17.00;9.40;;;;;;;20.56;83.74;97911.21;25102;1314;3026619;-62
2022/09/18 00:19:14;;;;;;;19.20;9.10;;;;;;;20.67;83.12;97906.13;25033;1314;3026520;-63
2022/09/18 00:21:46;;;;;;;14.30;9.20;;;;;;;20.46;83.33;97904.70;25017;1315;3027125;-63
2022/09/18 00:24:16;;;;;;;16.00;5.90;;;;;;;20.20;84.56;97904.10;25075;1315;3027221;-61
2022/09/18 00:26:45;;;;;;;14.30;8.10;;;;;;;20.42;84.35;97900.23;25042;1315;3026938;-63
2022/09/18 00:29:17;;;;;;;13.90;8.00;;;;;;;20.83;82.68;97891.87;25084;1314;3026610;-64
2022/09/18 00:31:46;;;;;;;17.50;9.10;;;;;;;20.74;82.01;97896.06;25044;1315;3026939;-63
2022/09/18 00:34:15;;;;;;;24.70;9.00;;;;;;;20.40;83.41;97900.33;25039;1315;3052025;-59
2022/09/18 00:36:46;;;;;;;9.20;5.00;;;;;;;20.16;84.84;97897.06;25039;1314;3027112;-62
2022/09/18 00:39:15;;;;;;;18.40;7.30;;;;;;;20.49;83.78;97894.17;25114;1314;3026689;-59
2022/09/18 00:41:45;;;;;;;19.90;8.00;;;;;;;20.65;82.89;97899.54;25061;1314;3052701;-61
2022/09/18 00:44:36;;;;;;;20.00;9.00;;;;;;;20.58;82.99;97899.45;25060;1314;3026531;-61
2022/09/18 00:47:10;;;;;;;16.50;8.30;;;;;;;20.30;83.90;97903.70;25042;1315;3052130;-63
2022/09/18 00:50:18;;;;;;;14.40;5.00;;;;;;;20.23;84.37;97906.59;25118;1315;3026402;-66
2022/09/18 00:52:56;;;;;;;17.40;7.10;;;;;;;20.65;82.72;97896.67;25060;1315;3055515;-61
2022/09/18 00:55:28;;;;;;;15.60;7.30;;;;;;;20.72;82.20;97901.40;25046;1314;3057277;-62
2022/09/18 00:57:59;;;;;;;16.80;8.20;;;;;;;20.52;82.79;97895.64;25021;1315;3026942;-61
2022/09/18 01:00:29;;;;;;;22.00;8.30;;;;;;;20.28;83.96;97895.92;25076;1315;3026721;-62
2022/09/18 01:03:00;;;;;;;14.90;5.50;;;;;;;20.06;84.98;97901.23;25076;1314;3027646;-61
2022/09/18 01:05:46;;;;;;;14.10;7.00;;;;;;;20.29;84.48;97903.60;25031;1316;3026734;-62
2022/09/18 01:08:36;;;;;;;17.00;8.00;;;;;;;20.50;83.28;97899.45;25064;1314;3048761;-61
2022/09/18 01:11:09;;;;;;;14.20;7.60;;;;;;;20.36;83.70;97894.30;25138;1315;3053613;-60
2022/09/18 01:14:09;;;;;;;22.00;8.50;;;;;;;20.19;84.54;97889.01;25037;1315;3026862;-61
2022/09/18 01:16:48;;;;;;;13.50;5.00;;;;;;;19.93;86.04;97884.56;25082;1315;3059053;-63
2022/09/18 01:19:45;;;;;;;8.90;6.00;;;;;;;20.48;83.82;97880.80;25108;1315;3049596;-61
2022/09/18 01:22:52;;;;;;;20.20;7.30;;;;;;;20.72;82.26;97878.58;25011;1315;3055388;-61
2022/09/18 01:26:15;;;;;;;12.70;7.20;;;;;;;20.56;82.31;97878.23;25060;1315;3054019;-60
2022/09/18 01:28:48;;;;;;;14.00;7.20;;;;;;;20.32;83.23;97878.77;24815;1323;3071352;-61
2022/09/18 01:31:19;;;;;;;13.20;5.20;;;;;;;20.08;84.44;97884.29;25039;1315;3026914;-60
2022/09/18 01:34:03;;;;;;;23.70;7.50;;;;;;;20.46;83.31;97887.27;25041;1314;3026797;-61
2022/09/18 01:36:35;;;;;;;18.50;6.90;;;;;;;20.71;82.08;97887.92;25060;1315;3053754;-59
2022/09/18 01:39:30;;;;;;;11.80;6.60;;;;;;;20.73;81.78;97882.52;25056;1314;3026992;-61
2022/09/18 01:41:59;;;;;;;14.00;7.30;;;;;;;20.29;83.43;97879.18;25027;1314;3049408;-62
2022/09/18 01:44:30;;;;;;;9.00;4.70;;;;;;;20.17;83.90;97875.62;25036;1315;3026707;-60
2022/09/18 01:47:08;;;;;;;12.00;5.80;;;;;;;20.47;83.02;97869.34;25113;1315;3057106;-60
2022/09/18 01:49:42;;;;;;;17.50;7.10;;;;;;;20.65;81.80;97861.45;25049;1315;3052801;-62
2022/09/18 01:52:20;;;;;;;15.80;7.10;;;;;;;20.65;81.74;97856.43;25108;1314;3053401;-58
2022/09/18 01:54:49;;;;;;;15.50;7.60;;;;;;;20.47;82.25;97857.52;25063;1314;3054560;-60
2022/09/18 01:57:23;;;;;;;19.50;7.60;;;;;;;20.21;83.31;97856.30;25037;1315;3026878;-58
2022/09/18 01:59:59;;;;;;;19.40;4.80;;;;;;;20.04;84.26;97852.77;25066;1314;3048953;-62
2022/09/18 02:02:48;;;;;;;10.90;5.80;;;;;;;20.45;83.22;97844.86;25013;1317;3052255;-61
2022/09/18 02:05:23;;;;;;;14.00;6.80;;;;;;;20.90;81.10;97829.58;25061;1314;3052998;-64
2022/09/18 02:08:21;;;;;;;14.90;6.40;;;;;;;20.84;80.54;97823.79;25060;1315;3057461;-61
2022/09/18 02:10:56;;;;;;;17.90;6.70;;;;;;;20.48;81.44;97820.30;25044;1315;3052159;-61
2022/09/18 02:13:29;;;;;;;13.80;6.80;;;;;;;20.19;82.73;97820.70;25063;1314;3052626;-63
2022/09/18 02:16:02;;;;;;;11.50;4.40;;;;;;;19.99;83.65;97813.73;25074;1315;3029594;-60
2022/09/18 02:18:33;;;;;;;14.90;5.50;;;;;;;20.50;82.26;97807.31;25053;1314;3028996;-59
2022/09/18 02:21:03;;;;;;;11.60;6.60;;;;;;;20.86;80.64;97793.79;25070;1314;3027590;-62
2022/09/18 02:23:32;;;;;;;10.20;6.40;;;;;;;20.81;80.20;97784.86;24965;1314;3026577;-60
2022/09/18 02:26:03;;;;;;;19.20;6.90;;;;;;;20.56;80.90;97776.52;25010;1317;3070889;-64
2022/09/18 02:28:32;;;;;;;12.20;6.60;;;;;;;20.32;81.77;97771.06;24980;1315;3026963;-61
2022/09/18 02:31:02;;;;;;;12.40;5.30;;;;;;;20.16;82.29;97760.44;25033;1314;3026582;-62
2022/09/18 02:33:35;;;;;;;12.20;5.10;;;;;;;20.61;81.50;97735.55;25080;1314;3026011;-61
2022/09/18 02:36:38;;;;;;;14.90;6.40;;;;;;;21.05;80.11;97733.92;25032;1315;3026728;-60
2022/09/18 02:39:29;;;;;;;16.90;6.70;;;;;;;20.97;79.50;97741.62;25047;1314;3052765;-62
2022/09/18 02:42:23;;;;;;;15.70;8.20;;;;;;;20.70;80.12;97738.21;24999;1318;3056016;-62
2022/09/18 02:44:59;;;;;;;21.60;8.80;;;;;;;20.38;80.98;97742.30;25004;1318;3053610;-60
2022/09/18 02:47:41;;;;;;;12.40;4.80;;;;;;;20.12;82.50;97759.06;25046;1318;3071245;-63
2022/09/18 02:50:15;;;;;;;13.50;5.90;;;;;;;20.58;81.82;97760.92;24963;1317;3049595;-61
2022/09/18 02:53:06;;;;;;;18.40;6.70;;;;;;;20.98;79.75;97756.00;24993;1318;3054929;-64
2022/09/18 02:55:45;;;;;;;18.50;7.50;;;;;;;20.76;79.95;97762.05;25059;1318;3051836;-62
2022/09/18 02:58:28;;;;;;;15.80;7.30;;;;;;;20.43;80.89;97757.38;24934;1319;3059360;-63
2022/09/18 03:00:59;;;;;;;18.40;6.90;;;;;;;20.15;81.83;97753.26;25073;1316;3049328;-62
2022/09/18 03:03:29;;;;;;;14.00;4.60;;;;;;;19.97;82.59;97749.45;25024;1316;3027510;-59
2022/09/18 03:06:05;;;;;;;13.40;5.00;;;;;;;20.44;81.78;97746.35;25081;1318;3051309;-60
2022/09/18 03:08:36;;;;;;;13.90;5.40;;;;;;;20.81;79.94;97734.64;25032;1316;3027169;-62
2022/09/18 03:11:06;;;;;;;17.70;7.00;;;;;;;20.54;80.72;97750.58;25019;1318;3026976;-61
2022/09/18 03:13:37;;;;;;;18.50;6.80;;;;;;;20.12;82.54;97763.94;25105;1318;3026849;-59
2022/09/18 03:16:06;;;;;;;24.80;7.00;;;;;;;19.93;83.58;97748.13;25017;1316;3026807;-62
2022/09/18 03:18:36;;;;;;;13.60;3.90;;;;;;;19.78;84.40;97743.70;25014;1316;3028916;-61
2022/09/18 03:21:06;;;;;;;20.90;5.40;;;;;;;20.24;83.19;97758.11;25001;1317;3026715;-61
2022/09/18 03:23:35;;;;;;;17.70;6.00;;;;;;;20.70;81.19;97743.66;24998;1318;3052056;-61
2022/09/18 03:26:15;;;;;;;19.30;6.30;;;;;;;20.41;81.39;97764.70;25005;1318;3059300;-61
2022/09/18 03:28:45;;;;;;;19.40;6.70;;;;;;;20.10;83.07;97789.61;25009;1318;3026577;-61
2022/09/18 03:31:15;;;;;;;18.60;6.90;;;;;;;19.89;84.12;97777.38;25008;1318;3026278;-64
2022/09/18 03:33:46;;;;;;;15.50;4.60;;;;;;;19.79;84.68;97770.79;24968;1316;3027388;-61
2022/09/18 03:36:15;;;;;;;19.20;6.20;;;;;;;20.26;83.51;97739.40;25012;1318;3026951;-63
2022/09/18 03:38:44;;;;;;;24.20;7.00;;;;;;;20.42;82.16;97716.75;24980;1318;3054721;-62
2022/09/18 03:41:15;;;;;;;17.70;6.70;;;;;;;20.37;82.47;97698.89;25055;1318;3026779;-64
2022/09/18 03:43:44;;;;;;;17.40;7.20;;;;;;;20.28;82.43;97660.82;24956;1318;3026568;-64
2022/09/18 03:46:21;;;;;;;23.60;7.80;;;;;;;19.92;84.13;97675.91;24954;1317;3025827;-60
2022/09/18 03:48:50;;;;;;;15.10;5.00;;;;;;;19.60;86.15;97676.05;24930;1316;3054286;-63
2022/09/18 03:51:19;;;;;;;14.80;6.30;;;;;;;20.16;84.07;97641.70;24978;1318;3026635;-61
2022/09/18 03:53:52;;;;;;;16.90;6.20;;;;;;;20.45;82.72;97645.21;25084;1316;3026528;-62
2022/09/18 03:56:40;;;;;;;21.80;7.00;;;;;;;20.23;83.32;97640.63;24998;1318;3053294;-62
2022/09/18 03:59:32;;;;;;;18.60;7.00;;;;;;;19.98;84.19;97640.77;25016;1318;3055873;-61
2022/09/18 04:02:16;;;;;;;;;;;;;;;19.78;85.47;97656.64;25016;1318;3053830;-62
2022/09/18 04:05:06;;;;;;;15.00;6.00;;;;;;;20.14;85.21;97667.73;25006;1318;3071567;-61
2022/09/18 04:07:54;;;;;;;21.70;6.40;;;;;;;20.36;83.43;97663.14;24986;1316;3048989;-62
2022/09/18 04:10:41;;;;;;;18.50;6.00;;;;;;;20.12;84.10;97665.02;25047;1316;3051691;-64
2022/09/18 04:13:11;;;;;;;13.80;6.30;;;;;;;19.75;86.11;97684.36;25112;1318;3026181;-63
2022/09/18 04:15:40;;;;;;;11.90;3.80;;;;;;;19.65;87.22;97671.14;25038;1316;3029721;-61
2022/09/18 04:18:10;;;;;;;17.00;5.50;;;;;;;20.03;86.06;97696.27;24998;1318;3029017;-59
2022/09/18 04:20:39;;;;;;;17.00;6.90;;;;;;;20.28;84.74;97686.05;25077;1318;3053104;-60
2022/09/18 04:23:11;;;;;;;22.10;8.80;;;;;;;20.09;85.04;97695.73;25040;1316;3026924;-60
2022/09/18 04:25:41;;;;;;;20.40;8.40;;;;;;;19.74;86.82;97685.91;25070;1318;3027505;-62
2022/09/18 04:28:10;;;;;;;16.10;5.20;;;;;;;19.59;88.42;97674.81;25092;1318;3027043;-60
2022/09/18 04:30:42;;;;;;;22.70;8.10;;;;;;;20.26;85.75;97660.20;25007;1318;3026260;-61
2022/09/18 04:33:11;;;;;;;17.10;8.30;;;;;;;20.23;85.13;97685.90;25112;1316;3028489;-62
2022/09/18 04:35:41;;;;;;;26.10;10.20;;;;;;;19.95;86.58;97688.55;25088;1316;3052120;-63
2022/09/18 04:38:11;;;;;;;26.20;9.90;;;;;;;19.94;86.93;97673.06;25059;1317;3026473;-63
2022/09/18 04:40:40;;;;;;;24.30;7.70;;;;;;;19.80;87.65;97673.82;24996;1316;3049181;-59
2022/09/18 04:43:12;;;;;;;27.20;9.10;;;;;;;19.97;87.55;97671.24;25080;1318;3026455;-62
2022/09/18 04:45:43;;;;;;;23.10;10.40;;;;;;;20.30;85.79;97656.92;25082;1316;3057013;-61
2022/09/18 04:48:13;;;;;;;25.20;11.00;;;;;;;20.17;85.75;97636.91;25065;1318;3027041;-59
2022/09/18 04:50:45;;;;;;;26.40;11.60;;;;;;;20.19;85.30;97604.64;25020;1318;3027003;-61
2022/09/18 04:53:18;;;;;;;16.80;7.30;;;;;;;20.01;86.24;97593.67;24982;1317;3052455;-60
2022/09/18 04:55:48;;;;;;;23.60;10.00;;;;;;;20.29;85.51;97602.16;25000;1316;3026449;-59
2022/09/18 04:58:19;;;;;;;27.00;10.20;;;;;;;20.53;84.23;97602.59;24976;1318;3026913;-61
2022/09/18 05:00:52;;;;;;;24.80;10.80;;;;;;;20.38;83.77;97601.30;24942;1317;3054972;-60
2022/09/18 05:03:21;;;;;;;21.70;12.00;;;;;;;20.08;85.39;97613.41;25042;1318;3026604;-60
2022/09/18 05:05:53;;;;;;;19.10;6.80;;;;;;;19.93;86.26;97612.30;25034;1318;3028864;-62
2022/09/18 05:08:23;;;;;;;24.20;10.10;;;;;;;20.36;84.82;97615.35;25023;1316;3028032;-60
2022/09/18 05:10:52;;;;;;;29.60;10.80;;;;;;;20.52;83.74;97612.68;24986;1317;3027849;-61
2022/09/18 05:13:22;;;;;;;23.70;11.30;;;;;;;20.41;84.07;97609.21;24974;1316;3026354;-61
2022/09/18 05:16:07;;;;;;;23.90;12.60;;;;;;;20.20;85.11;97617.85;25020;1318;3069010;-62
2022/09/18 05:18:37;;;;;;;25.60;7.70;;;;;;;20.03;86.58;97606.64;24990;1316;3027913;-61
2022/09/18 05:21:06;;;;;;;27.50;10.20;;;;;;;20.61;85.10;97607.27;24945;1318;3026599;-62
2022/09/18 05:23:36;;;;;;;21.40;10.40;;;;;;;20.73;83.49;97603.73;24922;1318;3070821;-63
2022/09/18 05:26:05;;;;;;;33.90;10.60;;;;;;;20.72;84.18;97602.89;24964;1318;3026679;-63
2022/09/18 05:28:36;;;;;;;22.70;10.10;;;;;;;20.47;85.30;97609.59;25009;1318;3026592;-61
2022/09/18 05:31:05;;;;;;;15.80;6.70;;;;;;;20.45;85.83;97604.50;25066;1317;3026897;-62
2022/09/18 05:33:40;;;;;;;20.00;7.70;;;;;;;20.81;84.37;97608.20;25069;1318;3056971;-60
2022/09/18 05:36:10;;;;;;;23.10;8.30;;;;;;;20.89;83.81;97610.17;25022;1318;3026549;-63
2022/09/18 05:38:39;;;;;;;22.50;8.60;;;;;;;20.89;83.94;97612.23;25079;1318;3026398;-63
2022/09/18 05:41:09;;;;;;;22.10;8.50;;;;;;;20.66;85.28;97616.21;25025;1316;3055253;-62
2022/09/18 05:43:42;;;;;;;20.40;5.50;;;;;;;20.62;86.19;97620.63;25022;1316;3027412;-64
2022/09/18 05:46:13;;;;;;;20.20;7.60;;;;;;;21.03;84.61;97620.60;24986;1318;3054576;-62
2022/09/18 05:48:48;;;;;;;22.00;7.90;;;;;;;21.19;83.65;97627.41;25092;1318;3054629;-61
2022/09/18 05:51:17;;;;;;;19.00;7.80;;;;;;;21.00;84.64;97625.20;25020;1316;3026827;-60
2022/09/18 05:53:47;;;;;;;21.10;7.20;;;;;;;20.82;85.62;97633.94;25041;1318;3026762;-64
2022/09/18 05:56:22;;;;;;;17.10;5.10;;;;;;;20.71;86.67;97634.23;25035;1318;3055351;-63
2022/09/18 05:58:51;;;;;;;19.70;6.90;;;;;;;21.07;85.06;97633.33;25116;1317;3026827;-62
2022/09/18 06:01:20;;;;;;;16.20;7.20;;;;;;;21.34;84.00;97630.70;25000;1317;3026357;-60
2022/09/18 06:04:08;;;;;;;21.30;7.10;;;;;;;21.27;83.95;97638.01;25046;1318;3055060;-61
2022/09/18 06:06:44;;;;;;;17.50;7.20;;;;;;;21.27;84.38;97630.58;24302;1318;4715602;-64
2022/09/18 06:09:13;;;;;;;14.60;4.80;;;;;;;21.02;85.58;97648.11;25066;1318;3051521;-61
2022/09/18 06:11:42;;;;;;;18.30;6.30;;;;;;;21.41;84.69;97652.34;24982;1316;3026343;-63
2022/09/18 06:14:11;;;;;;;23.70;6.90;;;;;;;21.56;83.35;97665.55;25092;1318;3069829;-61
2022/09/18 06:16:41;;;;;;;15.20;7.10;;;;;;;21.47;83.44;97665.79;25067;1316;3026462;-62
2022/09/18 06:19:11;;;;;;;16.60;6.70;;;;;;;21.35;84.29;97658.63;25071;1318;3026380;-63
2022/09/18 06:21:41;;;;;;;16.10;3.90;;;;;;;21.39;83.69;97656.21;25062;1318;3027262;-63
2022/09/18 06:24:10;;;;;;;17.10;6.50;;;;;;;21.84;82.25;97643.73;25030;1316;3026545;-63
2022/09/18 06:27:01;;;;;;;20.50;6.70;;;;;;;21.97;80.13;97640.58;24997;1316;3052858;-61
2022/09/18 06:29:30;;;;;;;14.80;6.00;;;;;;;21.79;81.10;97658.84;24960;1316;3026327;-63
2022/09/18 06:32:04;;;;;;;13.60;6.50;;;;;;;21.73;81.14;97655.58;24988;1317;3058545;-58
2022/09/18 06:34:34;;;;;;;10.00;3.90;;;;;;;21.52;81.90;97662.61;25027;1317;3026762;-65
2022/09/18 06:37:08;;;;;;;11.50;5.10;;;;;;;21.92;80.10;97673.61;25142;1315;3026738;-64
2022/09/18 06:39:46;;;;;;;12.40;5.70;;;;;;;22.05;79.36;97678.34;25041;1315;3053629;-63
2022/09/18 06:42:22;;;;;;;16.60;5.40;;;;;;;22.06;79.61;97678.11;25019;1315;3071554;-64
2022/09/18 06:45:09;;;;;;;19.00;6.80;;;;;;;22.10;79.16;97685.79;25038;1318;3053185;-63
2022/09/18 06:47:40;;;;;;;12.30;4.20;;;;;;;22.15;79.28;97677.02;25030;1317;3026024;-61
2022/09/18 06:50:11;;;;;;;10.80;4.00;;;;;;;22.58;77.16;97674.20;25055;1318;3026855;-63
2022/09/18 06:52:40;;;;;;;13.70;4.60;;;;;;;22.73;75.10;97680.04;25010;1316;3027527;-62
2022/09/18 06:55:09;;;;;;;13.90;5.20;;;;;;;22.79;74.75;97679.80;25005;1316;3025877;-62
2022/09/18 06:57:38;;;;;;;11.60;5.30;;;;;;;22.51;75.27;97677.48;25038;1319;3054843;-60
2022/09/18 07:00:33;;;;;;;15.70;5.50;;;;;;;22.33;76.54;97685.51;25057;1318;3059078;-63
2022/09/18 07:03:05;;;;;;;11.10;3.50;;;;;;;22.23;76.37;97680.47;25064;1316;3026797;-61
2022/09/18 07:05:52;;;;;;;13.70;4.60;;;;;;;22.78;74.48;97683.81;24979;1317;3055540;-60
2022/09/18 07:08:31;;;;;;;13.20;4.90;;;;;;;22.79;74.35;97683.02;25074;1318;3051844;-60
2022/09/18 07:11:30;;;;;;;14.10;5.10;;;;;;;22.80;74.22;97675.65;24995;1319;3070944;-62
2022/09/18 07:14:07;;;;;;;9.10;5.10;;;;;;;22.65;75.30;97664.52;25042;1318;3025864;-61
2022/09/18 07:16:37;;;;;;;11.90;5.40;;;;;;;22.58;75.17;97673.70;25065;1318;3052106;-63
2022/09/18 07:19:09;;;;;;;10.10;3.10;;;;;;;22.60;75.89;97678.23;25043;1316;3028722;-62
2022/09/18 07:21:40;;;;;;;13.00;3.80;;;;;;;23.22;73.34;97668.02;25053;1316;3026856;-63
2022/09/18 07:30:05;;;;;;;14.80;4.90;;;;;;;23.19;72.03;97686.80;31387;1319;3026899;-62
2022/09/18 07:32:35;;;;;;;14.10;5.50;;;;;;;23.08;71.55;97676.05;24896;1325;3028004;-62
2022/09/18 07:35:04;;;;;;;13.10;5.70;;;;;;;23.20;72.01;97676.77;24886;1322;3026689;-61
2022/09/18 07:37:35;;;;;;;8.80;2.80;;;;;;;23.19;72.12;97682.89;24951;1322;3047092;-62
2022/09/18 07:40:33;;;;;;;10.60;4.50;;;;;;;23.96;69.94;97683.00;24903;1322;3054755;-63
2022/09/18 07:43:08;;;;;;;10.60;4.50;;;;;;;23.92;68.87;97688.61;24312;1319;3053074;-65
2022/09/18 07:45:39;;;;;;;12.50;4.70;;;;;;;24.08;68.08;97686.71;25070;1319;3049117;-63
2022/09/18 07:48:12;;;;;;;10.20;3.60;;;;;;;24.07;67.13;97686.88;25038;1316;3026574;-62
2022/09/18 07:50:46;;;;;;;11.20;3.70;;;;;;;23.78;67.18;97702.10;25000;1316;3053677;-65
2022/09/18 07:53:17;;;;;;;9.60;3.90;;;;;;;23.74;67.63;97697.09;25054;1319;3026326;-65
2022/09/18 07:55:46;;;;;;;10.70;4.30;;;;;;;23.50;68.19;97698.55;25014;1315;3026140;-65
2022/09/18 07:58:16;;;;;;;9.10;4.00;;;;;;;23.45;68.06;97695.19;25038;1315;3027186;-64
2022/09/18 08:01:07;;;;;;;8.50;3.90;;;;;;;23.19;68.26;97714.67;25090;1316;3053002;-62
2022/09/18 08:03:42;;;;;;;10.20;3.70;;;;;;;23.08;69.27;97703.92;25007;1315;3071758;-63
2022/09/18 08:06:12;;;;;;;7.00;2.80;;;;;;;23.26;68.72;97699.75;25020;1316;3026971;-64
2022/09/18 08:09:10;;;;;;;10.60;3.30;;;;;;;23.97;66.56;97698.34;25016;1315;3051430;-62
2022/09/18 08:12:08;;;;;;;8.20;3.00;;;;;;;24.24;65.17;97691.27;25059;1316;3071525;-64
2022/09/18 08:14:53;;;;;;;8.70;3.10;;;;;;;24.09;65.03;97689.25;25015;1315;3052119;-64
2022/09/18 08:17:32;;;;;;;7.20;2.70;;;;;;;24.02;63.91;97695.98;25018;1318;3053649;-64
2022/09/18 08:20:09;;;;;;;10.40;3.10;;;;;;;23.98;64.67;97680.39;25034;1316;3053110;-63
2022/09/18 08:22:54;;;;;;;7.50;2.90;;;;;;;24.21;64.63;97679.83;25012;1316;3058949;-61
2022/09/18 08:25:27;;;;;;;7.00;3.10;;;;;;;24.10;64.18;97685.45;25037;1316;3026632;-64
2022/09/18 08:27:58;;;;;;;6.10;2.80;;;;;;;24.09;63.72;97689.39;24990;1316;3027575;-62
2022/09/18 08:30:37;;;;;;;6.80;2.40;;;;;;;24.17;63.15;97674.96;25125;1315;3050855;-61
2022/09/18 08:33:10;;;;;;;8.30;3.10;;;;;;;24.10;62.83;97683.71;25012;1315;3071387;-62
2022/09/18 08:35:42;;;;;;;6.20;2.60;;;;;;;24.13;62.90;97673.11;25052;1319;3026387;-61
2022/09/18 08:38:21;;;;;;;4.60;2.20;;;;;;;24.14;61.91;97675.62;25102;1318;3050600;-65
2022/09/18 08:41:31;;;;;;;5.20;2.20;;;;;;;24.25;61.62;97668.15;25057;1315;3071794;-62
2022/09/18 08:44:10;;;;;;;7.30;2.80;;;;;;;24.27;60.85;97670.55;24960;1316;3050024;-64
2022/09/18 08:47:09;;;;;;;3.90;1.90;;;;;;;24.18;60.04;97673.64;25060;1315;3055047;-63
2022/09/18 08:49:44;;;;;;;11.80;2.50;;;;;;;24.29;59.66;97675.56;25009;1319;3053472;-60
2022/09/18 08:52:17;;;;;;;5.10;2.00;;;;;;;24.27;59.74;97673.36;25034;1316;3056621;-65
2022/09/18 08:55:21;;;;;;;7.90;2.20;;;;;;;24.25;59.70;97675.46;25015;1318;3028479;-62
2022/09/18 08:58:06;;;;;;;6.50;2.30;;;;;;;24.24;59.28;97681.61;25101;1316;3054628;-64
2022/09/18 09:01:02;;;;;;;7.20;2.30;;;;;;;24.29;59.48;97673.63;25137;1316;3051827;-64
2022/09/18 09:04:00;;;;;;;7.00;1.90;;;;;;;24.42;58.92;97671.31;25063;1316;3071246;-66
2022/09/18 09:06:49;;;;;;;6.40;2.10;;;;;;;24.55;58.12;97672.88;25097;1315;3052076;-65
2022/09/18 09:10:03;;;;;;;4.20;2.10;;;;;;;24.55;57.03;97668.64;25026;1315;3053257;-71
2022/09/18 09:12:49;;;;;;;6.40;1.80;;;;;;;24.59;57.10;97676.38;25035;1319;3055633;-60
2022/09/18 09:15:39;;;;;;;7.40;2.00;;;;;;;24.62;56.26;97666.65;25092;1316;3057960;-64
2022/09/18 09:18:21;;;;;;;9.20;2.20;;;;;;;24.74;56.93;97669.60;25048;1316;3049374;-62
2022/09/18 09:20:52;;;;;;;5.60;2.10;;;;;;;24.73;56.82;97671.83;25078;1316;3055574;-61
2022/09/18 09:23:57;;;;;;;5.10;1.50;;;;;;;24.58;57.43;97678.14;25046;1316;3050816;-64
2022/09/18 09:26:55;;;;;;;9.50;2.90;;;;;;;24.81;57.32;97674.30;24937;1319;3069536;-64
2022/09/18 09:29:43;;;;;;;4.90;1.80;;;;;;;25.01;56.32;97678.41;25113;1315;3051086;-65
2022/09/18 09:32:30;;;;;;;5.90;2.00;;;;;;;25.10;56.10;97676.65;25038;1315;3052475;-63
2022/09/18 09:35:15;;;;;;;4.30;1.90;;;;;;;25.24;55.45;97664.83;25044;1315;3055419;-66
2022/09/18 09:38:05;;;;;;;6.50;1.60;;;;;;;25.33;54.48;97683.70;25017;1315;3059205;-65
2022/09/18 09:40:35;;;;;;;5.90;1.40;;;;;;;25.39;53.28;97681.90;25027;1315;3051619;-61
2022/09/18 09:43:04;;;;;;;4.00;1.30;;;;;;;25.48;53.39;97676.45;25041;1315;3026991;-66
2022/09/18 09:45:38;;;;;;;3.10;1.30;;;;;;;25.56;53.27;97693.41;25061;1315;3026290;-65
2022/09/18 09:48:13;;;;;;;;;;;;;;;25.63;52.53;97692.08;25046;1319;3071289;-62
2022/09/18 09:51:16;;;;;;;10.10;1.60;;;;;;;25.50;52.26;97698.05;25061;1315;3051471;-64
2022/09/18 09:53:46;;;;;;;6.30;1.50;;;;;;;25.60;52.70;97685.01;25048;1316;3053157;-63
2022/09/18 09:56:21;;;;;;;2.60;1.40;;;;;;;25.67;52.14;97680.48;25057;1316;3026455;-62
2022/09/18 09:59:23;;;;;;;6.40;1.60;;;;;;;25.77;52.32;97685.01;25049;1316;3056358;-67
2022/09/18 10:02:31;;;;;;;8.40;1.80;;;;;;;25.70;51.94;97682.15;25016;1316;3050050;-64
2022/09/18 10:05:05;;;;;;;5.50;1.50;;;;;;;25.65;51.84;97685.97;25066;1315;3056108;-63
2022/09/18 10:08:08;;;;;;;3.90;1.10;;;;;;;25.72;51.61;97691.67;25055;1316;3051012;-62
2022/09/18 10:10:44;;;;;;;7.70;1.30;;;;;;;25.62;52.12;97686.56;25066;1315;3069027;-61
2022/09/18 10:13:24;;;;;;;10.00;1.40;;;;;;;25.75;51.47;97676.73;25068;1319;3051443;-62
2022/09/18 10:16:02;;;;;;;4.90;1.40;;;;;;;25.79;51.88;97681.45;25009;1316;3055478;-60
2022/09/18 10:18:34;;;;;;;9.50;1.80;;;;;;;25.77;51.37;97668.91;25007;1316;3053111;-68
2022/09/18 10:21:15;;;;;;;8.00;1.60;;;;;;;25.83;51.08;97664.96;25013;1315;3027927;-63
2022/09/18 10:23:59;;;;;;;9.40;2.00;;;;;;;25.91;50.87;97675.05;25055;1316;3052556;-62
2022/09/18 10:26:32;;;;;;;11.90;2.40;;;;;;;26.03;50.58;97667.28;25127;1315;3053398;-60
2022/09/18 10:29:02;;;;;;;7.20;1.80;;;;;;;26.08;50.55;97659.45;25040;1315;3053341;-62
2022/09/18 10:31:45;;;;;;;7.70;1.60;;;;;;;26.14;50.74;97669.52;25046;1316;3026686;-61
2022/09/18 10:34:43;;;;;;;8.30;1.50;;;;;;;26.11;50.66;97670.43;25112;1315;3052209;-67
2022/09/18 10:37:37;;;;;;;6.40;1.60;;;;;;;26.05;51.14;97661.81;25104;1316;3055366;-63
2022/09/18 10:40:30;;;;;;;4.30;1.20;;;;;;;26.10;50.56;97664.39;25047;1316;3051940;-66
2022/09/18 10:43:00;;;;;;;6.20;1.80;;;;;;;26.20;50.49;97663.68;25090;1316;3057681;-64
2022/09/18 10:45:35;;;;;;;9.20;2.20;;;;;;;26.16;50.30;97664.67;25086;1316;3026675;-64
2022/09/18 10:48:24;;;;;;;4.20;1.70;;;;;;;26.20;50.69;97662.80;25094;1316;3052642;-64
2022/09/18 10:50:56;;;;;;;7.30;2.30;;;;;;;26.32;50.10;97653.13;25141;1315;3026471;-62
2022/09/18 10:53:33;;;;;;;6.00;1.40;;;;;;;26.38;49.13;97652.55;25020;1316;3051582;-64
2022/09/18 10:56:15;;;;;;;11.10;1.90;;;;;;;26.34;48.30;97646.55;25056;1315;3053171;-62
2022/09/18 10:58:45;;;;;;;12.10;2.80;;;;;;;26.44;47.61;97648.56;25132;1316;3026904;-64
2022/09/18 11:01:14;;;;;;;11.00;1.70;;;;;;;26.52;46.99;97644.73;25027;1315;3026817;-62
2022/09/18 11:03:46;;;;;;;9.40;2.60;;;;;;;26.58;47.19;97641.83;25093;1315;3052108;-62
2022/09/18 11:06:22;;;;;;;18.40;4.80;;;;;;;26.62;47.58;97641.59;25072;1315;3050482;-63
2022/09/18 11:08:55;;;;;;;12.00;3.10;;;;;;;26.49;47.27;97644.52;25026;1316;3026953;-65
2022/09/18 11:11:32;;;;;;;10.70;2.10;;;;;;;26.51;48.21;97633.13;25086;1315;3028535;-61
2022/09/18 11:14:17;;;;;;;13.10;1.60;;;;;;;26.68;47.84;97633.85;25030;1315;3052924;-65
2022/09/18 11:17:06;;;;;;;26.60;7.00;;;;;;;26.97;47.63;97633.92;25041;1316;3053884;-64
2022/09/18 11:19:40;;;;;;;5.60;1.70;;;;;;;26.79;46.94;97637.77;25046;1315;3059362;-63
2022/09/18 11:22:34;;;;;;;11.30;1.70;;;;;;;26.87;46.39;97633.54;25005;1315;3048960;-62
2022/09/18 11:25:25;;;;;;;4.50;1.80;;;;;;;26.98;46.06;97632.75;25066;1316;3056154;-64
2022/09/18 11:27:58;;;;;;;13.40;2.20;;;;;;;27.10;46.05;97623.41;25069;1315;3050034;-67
2022/09/18 11:30:32;;;;;;;8.80;2.50;;;;;;;27.05;46.24;97622.63;25085;1315;3027095;-64
2022/09/18 11:33:13;;;;;;;7.30;1.50;;;;;;;27.21;45.75;97628.23;25070;1316;3026685;-63
2022/09/18 11:35:44;;;;;;;7.00;3.90;;;;;;;27.20;45.82;97614.89;25116;1316;3054765;-64
2022/09/18 11:38:15;;;;;;;8.90;2.00;;;;;;;27.26;46.06;97616.54;25126;1316;3026807;-65
2022/09/18 11:40:48;;;;;;;7.70;1.70;;;;;;;27.26;45.45;97621.39;25076;1316;3026701;-63
2022/09/18 11:43:24;;;;;;;10.50;3.10;;;;;;;27.24;45.89;97622.07;25109;1316;3049334;-65
2022/09/18 11:46:21;;;;;;;6.80;2.30;;;;;;;27.17;46.05;97615.70;25073;1316;3055621;-64
2022/09/18 11:49:00;;;;;;;10.10;1.80;;;;;;;27.42;45.97;97614.59;25097;1316;3050622;-65
2022/09/18 11:51:58;;;;;;;8.20;1.50;;;;;;;27.46;46.12;97608.55;25044;1315;3069064;-64
2022/09/18 11:54:35;;;;;;;8.60;1.80;;;;;;;27.25;46.66;97610.33;25126;1316;3051187;-63
2022/09/18 11:57:16;;;;;;;10.30;2.20;;;;;;;27.37;46.34;97602.69;25072;1316;3026153;-62
2022/09/18 11:59:50;;;;;;;7.40;1.50;;;;;;;27.48;45.32;97593.17;25015;1315;3055261;-61
2022/09/18 12:02:37;;;;;;;12.10;1.40;;;;;;;27.39;45.40;97592.75;25096;1316;3056906;-64
2022/09/18 12:05:16;;;;;;;7.80;2.10;;;;;;;27.28;45.67;97587.23;25062;1315;3052029;-63